EFKK/KOK METAR and TAF weather

Enter ICAO airport designator
Station Type Date Time Source
EFKK METAR 2018/10/21 03:50 UTC NOAA

EFKK 210350Z AUTO 18010KT 9999 BKN002 BKN005 04/04 Q1014


Station Type Date Time Source
EFKK Decoded METAR 2018/10/21 03:50 UTC NOAA

Kruunupyy, Finland (EFKK) 63-43N 023-09E
Oct 20, 2018 - 11:50 PM EDT / 2018.10.21 0350 UTC
Wind: from the S (180 degrees) at 12 MPH (10 KT):0
Visibility: greater than 7 mile(s):0
Sky conditions: mostly cloudy
Temperature: 39 F (4 C)
Dew Point: 39 F (4 C)
Relative Humidity: 100%
Pressure (altimeter): 29.94 in. Hg (1014 hPa)
ob: EFKK 210350Z AUTO 18010KT 9999 BKN002 BKN005 04/04 Q1014
cycle: 4

Station Type Date Time Source
EFKK TAF 2013/12/22 09:42 UTC NOAA

TAF EFKK 220834Z 2209/2221 20009KT 9999 OVC007
TEMPO 2209/2211 6000 -DZ BKN003
BECMG 2211/2213 6000 RA
TEMPO 2213/2221 BKN011


Example: see airport list